createdAt,value
2023-04-18T00:01:27.401Z,2.71
2023-04-18T00:03:53.972Z,2.76
2023-04-18T00:06:22.200Z,2.68
2023-04-18T00:08:48.977Z,2.56
2023-04-18T00:11:15.416Z,2.57
2023-04-18T00:13:41.894Z,2.62
2023-04-18T00:16:08.714Z,2.56
2023-04-18T00:18:36.815Z,2.35
2023-04-18T00:21:04.334Z,2.25
2023-04-18T00:23:31.119Z,2.33
2023-04-18T00:25:57.672Z,2.31
2023-04-18T00:28:24.153Z,2.30
2023-04-18T00:30:50.669Z,2.32
2023-04-18T00:33:17.711Z,2.41
2023-04-18T00:35:44.386Z,2.38
2023-04-18T00:38:10.801Z,2.26
2023-04-18T00:40:37.815Z,2.33
2023-04-18T00:43:04.444Z,2.38
2023-04-18T00:45:31.072Z,2.24
2023-04-18T00:47:57.557Z,2.22
2023-04-18T00:50:24.599Z,2.10
2023-04-18T00:52:52.089Z,2.05
2023-04-18T00:55:18.874Z,2.00
2023-04-18T00:57:45.908Z,2.05
2023-04-18T01:00:12.897Z,2.04
2023-04-18T01:02:40.214Z,1.89
2023-04-18T01:05:07.938Z,1.96
2023-04-18T01:07:37.323Z,1.90
2023-04-18T01:10:04.266Z,1.82
2023-04-18T01:12:30.738Z,1.74
2023-04-18T01:14:57.290Z,1.81
2023-04-18T01:17:23.841Z,1.76
2023-04-18T01:19:50.973Z,1.79
2023-04-18T01:22:19.489Z,1.81
2023-04-18T01:24:45.906Z,1.82
2023-04-18T01:27:13.765Z,1.81
2023-04-18T01:29:43.028Z,1.81
2023-04-18T01:32:09.479Z,1.74
2023-04-18T01:34:36.122Z,1.70
2023-04-18T01:37:02.534Z,1.71
2023-04-18T01:39:29.185Z,1.67
2023-04-18T01:41:55.591Z,1.73
2023-04-18T01:44:22.005Z,1.65
2023-04-18T01:46:48.484Z,1.67
2023-04-18T01:49:15.996Z,1.57
2023-04-18T01:51:43.131Z,1.58
2023-04-18T01:54:09.561Z,1.45
2023-04-18T01:56:35.950Z,1.51
2023-04-18T01:59:02.357Z,1.48
2023-04-18T02:01:28.792Z,1.45
2023-04-18T02:03:55.496Z,1.44
2023-04-18T02:06:22.120Z,1.32
2023-04-18T02:08:48.753Z,1.28
2023-04-18T02:11:15.248Z,1.23
2023-04-18T02:13:41.760Z,1.32
2023-04-18T02:16:12.915Z,1.25
2023-04-18T02:18:40.148Z,1.29
2023-04-18T02:21:07.225Z,1.32
2023-04-18T02:23:33.716Z,1.32
2023-04-18T02:26:00.258Z,1.24
2023-04-18T02:28:26.693Z,1.15
2023-04-18T02:30:53.077Z,1.01
2023-04-18T02:33:19.553Z,1.07
2023-04-18T02:35:45.947Z,1.01
2023-04-18T02:38:13.739Z,0.98
2023-04-18T02:40:40.166Z,1.04
2023-04-18T02:43:06.573Z,1.00
2023-04-18T02:45:33.029Z,0.90
2023-04-18T02:47:59.571Z,0.73
2023-04-18T02:50:26.894Z,0.72
2023-04-18T02:52:53.446Z,0.80
2023-04-18T02:55:20.997Z,0.71
2023-04-18T02:57:47.625Z,0.72
2023-04-18T03:00:14.440Z,0.69
2023-04-18T03:02:41.130Z,0.70
2023-04-18T03:05:08.013Z,0.67
2023-04-18T03:07:34.460Z,0.64
2023-04-18T03:10:00.920Z,0.68
2023-04-18T03:12:27.273Z,0.66
2023-04-18T03:14:53.688Z,0.66
2023-04-18T03:17:20.510Z,0.66
2023-04-18T03:19:46.957Z,0.59
2023-04-18T03:22:14.320Z,0.66
2023-04-18T03:24:40.833Z,0.71
2023-04-18T03:27:07.611Z,0.94
2023-04-18T03:29:34.171Z,0.93
2023-04-18T03:32:00.781Z,0.96
2023-04-18T03:34:27.592Z,1.06
2023-04-18T03:36:54.220Z,1.11
2023-04-18T03:39:20.925Z,1.29
2023-04-18T03:41:47.465Z,1.41
2023-04-18T03:44:14.115Z,1.96
2023-04-18T03:46:41.158Z,1.95
2023-04-18T03:49:07.619Z,2.12
2023-04-18T03:51:44.472Z,2.34
2023-04-18T03:54:11.021Z,2.45
2023-04-18T03:56:37.569Z,2.54
2023-04-18T03:59:04.060Z,2.53
2023-04-18T04:01:30.714Z,2.66
2023-04-18T04:03:57.268Z,2.76
2023-04-18T04:06:24.192Z,2.85
2023-04-18T04:08:50.585Z,2.87
2023-04-18T04:11:17.566Z,2.82
2023-04-18T04:13:44.138Z,2.85
2023-04-18T04:16:10.753Z,2.89
2023-04-18T04:18:37.470Z,2.87
2023-04-18T04:21:05.192Z,2.80
2023-04-18T04:23:31.662Z,2.72
2023-04-18T04:25:58.760Z,2.69
2023-04-18T04:28:26.302Z,2.69
2023-04-18T04:30:53.169Z,2.75
2023-04-18T04:33:20.669Z,2.76
2023-04-18T04:35:47.581Z,2.80
2023-04-18T04:38:15.333Z,2.78
2023-04-18T04:40:42.517Z,2.66
2023-04-18T04:43:12.484Z,2.81
2023-04-18T04:45:41.902Z,2.95
2023-04-18T04:48:09.343Z,3.24
2023-04-18T04:50:41.791Z,3.26
2023-04-18T04:53:08.683Z,3.29
2023-04-18T04:55:35.289Z,3.28
2023-04-18T04:58:01.753Z,3.43
2023-04-18T05:00:28.850Z,3.53
2023-04-18T05:02:57.192Z,3.63
2023-04-18T05:05:23.665Z,3.70
2023-04-18T05:07:50.398Z,3.72
2023-04-18T05:10:17.026Z,3.84
2023-04-18T05:12:43.418Z,3.99
2023-04-18T05:15:10.531Z,4.12
2023-04-18T05:17:37.116Z,4.19
2023-04-18T05:20:04.364Z,4.39
2023-04-18T05:22:30.824Z,4.48
2023-04-18T05:24:57.280Z,4.49
2023-04-18T05:27:23.935Z,4.72
2023-04-18T05:29:52.785Z,4.76
2023-04-18T05:32:22.315Z,4.83
2023-04-18T05:34:49.028Z,4.92
2023-04-18T05:37:15.470Z,4.96
2023-04-18T05:39:41.959Z,5.03
2023-04-18T05:42:11.017Z,5.12
2023-04-18T05:44:37.459Z,5.18
2023-04-18T05:47:07.742Z,5.26
2023-04-18T05:49:37.218Z,5.29
2023-04-18T05:52:06.283Z,5.36
2023-04-18T05:54:35.221Z,5.37
2023-04-18T05:57:03.859Z,5.42
2023-04-18T05:59:30.973Z,5.39
2023-04-18T06:01:57.436Z,5.42
2023-04-18T06:04:24.052Z,5.45
2023-04-18T06:06:53.088Z,5.54
2023-04-18T06:09:19.646Z,5.71
2023-04-18T06:11:46.532Z,5.86
2023-04-18T06:14:13.460Z,5.75
2023-04-18T06:16:40.661Z,5.88
2023-04-18T06:19:07.260Z,5.91
2023-04-18T06:21:33.916Z,5.85
2023-04-18T06:24:01.497Z,5.96
2023-04-18T06:26:29.530Z,5.87
2023-04-18T06:28:56.019Z,5.93
2023-04-18T06:31:22.464Z,6.03
2023-04-18T06:33:48.950Z,6.12
2023-04-18T06:36:15.489Z,6.31
2023-04-18T06:38:41.906Z,6.15
2023-04-18T06:41:08.525Z,6.09
2023-04-18T06:43:36.274Z,6.27
2023-04-18T06:46:04.741Z,6.29
2023-04-18T06:48:31.379Z,6.30
2023-04-18T06:50:57.919Z,6.24
2023-04-18T06:53:24.397Z,6.29
2023-04-18T06:55:51.061Z,6.24
2023-04-18T06:58:17.729Z,6.31
2023-04-18T07:00:45.096Z,6.44
2023-04-18T07:03:13.364Z,6.56
2023-04-18T07:05:40.535Z,6.55
2023-04-18T07:08:07.602Z,6.62
2023-04-18T07:10:34.060Z,6.60
2023-04-18T07:13:00.619Z,6.66
2023-04-18T07:15:27.171Z,6.77
2023-04-18T07:17:56.833Z,6.46
2023-04-18T07:20:23.251Z,6.59
2023-04-18T07:22:49.677Z,6.76
2023-04-18T07:25:16.271Z,7.41
2023-04-18T07:27:42.845Z,7.86
2023-04-18T07:30:09.796Z,7.44
2023-04-18T07:32:36.598Z,7.63
2023-04-18T07:35:04.143Z,7.63
2023-04-18T07:37:31.236Z,7.63
2023-04-18T07:39:57.664Z,7.73
2023-04-18T07:42:24.079Z,7.67
2023-04-18T07:44:50.538Z,7.82
2023-04-18T07:47:22.347Z,7.70
2023-04-18T07:49:49.180Z,7.84
2023-04-18T07:52:15.612Z,7.92
2023-04-18T07:54:42.134Z,8.07
2023-04-18T07:57:08.737Z,8.24
2023-04-18T07:59:35.310Z,8.38
2023-04-18T08:02:02.025Z,8.52
2023-04-18T08:04:30.463Z,8.98
2023-04-18T08:06:57.154Z,9.27
2023-04-18T08:09:23.592Z,9.33
2023-04-18T08:11:50.204Z,10.24
2023-04-18T08:14:16.718Z,10.84
2023-04-18T08:16:43.178Z,12.00
2023-04-18T08:19:09.771Z,11.42
2023-04-18T08:21:36.388Z,11.40
2023-04-18T08:24:02.828Z,10.80
2023-04-18T08:26:29.240Z,10.42
2023-04-18T08:28:55.664Z,10.17
2023-04-18T08:31:22.287Z,10.11
2023-04-18T08:33:48.733Z,10.12
2023-04-18T08:36:15.403Z,10.09
2023-04-18T08:38:41.893Z,10.12
2023-04-18T08:41:08.557Z,10.31
2023-04-18T08:43:35.356Z,10.06
2023-04-18T08:46:01.975Z,9.77
2023-04-18T08:48:28.556Z,10.00
2023-04-18T08:50:59.523Z,10.07
2023-04-18T08:53:26.775Z,10.07
2023-04-18T08:55:57.258Z,10.16
2023-04-18T08:58:26.396Z,10.22
2023-04-18T09:00:55.669Z,10.40
2023-04-18T09:03:41.569Z,10.28
2023-04-18T09:06:14.036Z,10.13
2023-04-18T09:08:54.711Z,10.11
2023-04-18T09:11:21.970Z,10.08
2023-04-18T09:13:48.566Z,10.25
2023-04-18T09:16:14.998Z,10.40
2023-04-18T09:18:42.369Z,10.95
2023-04-18T09:21:19.357Z,10.90
2023-04-18T09:23:50.333Z,10.75
2023-04-18T09:26:33.747Z,10.74
2023-04-18T09:29:00.873Z,10.74
2023-04-18T09:31:27.969Z,10.63
2023-04-18T09:33:56.560Z,10.35
2023-04-18T09:36:27.253Z,10.64
2023-04-18T09:38:56.623Z,10.71
2023-04-18T09:41:24.273Z,10.89
2023-04-18T09:44:11.527Z,11.12
2023-04-18T09:46:45.226Z,11.07
2023-04-18T09:49:13.477Z,11.57
2023-04-18T09:51:43.042Z,12.05
2023-04-18T09:54:14.753Z,12.03
2023-04-18T09:56:44.177Z,11.83
2023-04-18T09:59:12.277Z,11.80
2023-04-18T10:01:41.315Z,11.83
2023-04-18T10:04:08.911Z,11.97
2023-04-18T10:06:39.605Z,11.95
2023-04-18T10:09:09.071Z,12.12
2023-04-18T10:11:36.362Z,11.79
2023-04-18T10:14:07.864Z,12.10
2023-04-18T10:16:36.423Z,12.21
2023-04-18T10:19:29.404Z,11.93
2023-04-18T10:21:57.761Z,11.79
2023-04-18T10:24:50.103Z,12.01
2023-04-18T10:27:17.184Z,12.06
2023-04-18T10:29:51.091Z,12.42
2023-04-18T10:32:23.524Z,12.29
2023-04-18T10:34:50.454Z,12.74
2023-04-18T10:37:18.788Z,13.22
2023-04-18T10:40:06.292Z,13.20
2023-04-18T10:42:48.009Z,12.94
2023-04-18T10:45:24.650Z,12.95
2023-04-18T10:48:11.183Z,13.64
2023-04-18T10:51:12.895Z,13.48
2023-04-18T10:53:40.516Z,13.32
2023-04-18T10:56:10.748Z,13.06
2023-04-18T10:58:37.287Z,12.59
2023-04-18T11:01:06.330Z,13.08
2023-04-18T11:03:34.039Z,13.32
2023-04-18T11:06:04.003Z,13.48
2023-04-18T11:08:33.703Z,13.56
2023-04-18T11:11:03.048Z,14.27
2023-04-18T11:13:29.630Z,15.28
2023-04-18T11:15:56.174Z,15.61
2023-04-18T11:18:22.684Z,15.97
2023-04-18T11:20:51.109Z,15.57
2023-04-18T11:23:24.839Z,15.97
2023-04-18T11:25:56.297Z,15.55
2023-04-18T11:28:24.827Z,14.73
2023-04-18T11:30:51.300Z,14.62
2023-04-18T11:33:19.709Z,14.17
2023-04-18T11:35:49.200Z,14.16
2023-04-18T11:38:16.450Z,13.89
2023-04-18T11:40:50.283Z,13.78
2023-04-18T11:43:21.991Z,13.63
2023-04-18T11:45:55.691Z,13.55
2023-04-18T11:48:23.015Z,13.66
2023-04-18T11:50:49.836Z,13.98
2023-04-18T11:53:40.545Z,14.07
2023-04-18T11:56:07.455Z,14.20
2023-04-18T11:58:34.809Z,14.17
2023-04-18T12:01:19.036Z,13.54
2023-04-18T12:04:06.695Z,13.75
2023-04-18T12:06:50.044Z,13.63
2023-04-18T12:09:17.403Z,13.84
2023-04-18T12:11:44.233Z,14.04
2023-04-18T12:14:21.632Z,14.99
2023-04-18T12:16:51.540Z,15.02
2023-04-18T12:19:20.886Z,15.71
2023-04-18T12:22:00.832Z,15.79
2023-04-18T12:24:28.931Z,15.62
2023-04-18T12:26:57.824Z,16.16
2023-04-18T12:29:25.590Z,17.11
2023-04-18T12:31:54.629Z,17.44
2023-04-18T12:34:21.340Z,14.82
2023-04-18T12:36:47.854Z,14.93
2023-04-18T12:39:14.243Z,14.94
2023-04-18T12:41:43.482Z,14.92
2023-04-18T12:44:10.095Z,14.81
2023-04-18T12:46:36.674Z,14.78
2023-04-18T12:49:03.136Z,14.91
2023-04-18T12:51:29.591Z,14.38
2023-04-18T12:53:56.396Z,13.77
2023-04-18T12:56:23.025Z,13.43
2023-04-18T12:58:49.439Z,13.65
2023-04-18T13:01:16.466Z,13.26
2023-04-18T13:03:43.177Z,13.88
2023-04-18T13:06:09.785Z,15.46
2023-04-18T13:08:38.334Z,13.95
2023-04-18T13:11:04.830Z,14.10
2023-04-18T13:13:34.460Z,14.01
2023-04-18T13:16:02.200Z,13.29
2023-04-18T13:18:28.622Z,12.83
2023-04-18T13:20:55.110Z,13.10
2023-04-18T13:23:21.562Z,13.29
2023-04-18T13:25:48.090Z,13.67
2023-04-18T13:28:14.580Z,13.35
2023-04-18T13:30:41.010Z,13.66
2023-04-18T13:33:07.482Z,13.61
2023-04-18T13:35:33.989Z,13.00
2023-04-18T13:38:00.666Z,12.76
2023-04-18T13:40:27.231Z,12.86
2023-04-18T13:42:53.742Z,12.66
2023-04-18T13:45:20.589Z,12.65
2023-04-18T13:47:47.311Z,12.62
2023-04-18T13:50:13.808Z,12.49
2023-04-18T13:52:40.362Z,12.38
2023-04-18T13:55:07.499Z,12.38
2023-04-18T13:57:34.288Z,12.26
2023-04-18T14:00:01.199Z,12.25
2023-04-18T14:02:27.895Z,12.25
2023-04-18T14:04:54.940Z,12.24
2023-04-18T14:07:21.488Z,12.36
2023-04-18T14:09:48.165Z,12.51
2023-04-18T14:12:14.767Z,12.63
2023-04-18T14:14:41.849Z,12.78
2023-04-18T14:17:08.267Z,12.91
2023-04-18T14:19:34.981Z,12.83
2023-04-18T14:22:01.434Z,12.98
2023-04-18T14:24:27.981Z,13.83
2023-04-18T14:26:54.891Z,14.56
2023-04-18T14:29:21.394Z,14.10
2023-04-18T14:31:47.917Z,14.14
2023-04-18T14:34:14.613Z,13.98
2023-04-18T14:36:41.144Z,13.38
2023-04-18T14:39:08.294Z,13.36
2023-04-18T14:41:34.696Z,14.05
2023-04-18T14:44:01.142Z,13.83
2023-04-18T14:46:28.244Z,15.22
2023-04-18T14:48:54.986Z,15.44
2023-04-18T14:51:21.456Z,14.86
2023-04-18T14:53:47.915Z,14.99
2023-04-18T14:56:15.811Z,14.37
2023-04-18T14:58:42.839Z,14.14
2023-04-18T15:01:09.226Z,13.95
2023-04-18T15:03:35.849Z,14.74
2023-04-18T15:06:02.375Z,14.51
2023-04-18T15:08:30.775Z,14.04
2023-04-18T15:10:58.917Z,14.75
2023-04-18T15:13:25.407Z,14.94
2023-04-18T15:15:56.780Z,15.47
2023-04-18T15:18:23.431Z,14.96
2023-04-18T15:20:50.042Z,14.87
2023-04-18T15:23:16.598Z,14.14
2023-04-18T15:25:44.867Z,14.37
2023-04-18T15:28:13.511Z,14.56
2023-04-18T15:30:40.173Z,14.44
2023-04-18T15:33:06.732Z,14.30
2023-04-18T15:35:33.227Z,13.84
2023-04-18T15:37:59.714Z,13.87
2023-04-18T15:40:26.126Z,13.41
2023-04-18T15:42:54.160Z,13.65
2023-04-18T15:45:21.278Z,13.09
2023-04-18T15:47:47.957Z,12.99
2023-04-18T15:50:15.981Z,12.91
2023-04-18T15:52:42.670Z,12.85
2023-04-18T15:55:11.267Z,12.77
2023-04-18T15:57:37.757Z,12.60
2023-04-18T16:00:27.345Z,12.31
2023-04-18T16:02:54.071Z,12.41
2023-04-18T16:05:20.726Z,12.32
2023-04-18T16:07:47.124Z,12.33
2023-04-18T16:10:15.258Z,12.05
2023-04-18T16:12:41.756Z,12.07
2023-04-18T16:15:09.958Z,12.24
2023-04-18T16:17:37.697Z,12.20
2023-04-18T16:20:09.077Z,12.27
2023-04-18T16:22:36.457Z,12.35
2023-04-18T16:25:04.090Z,12.41
2023-04-18T16:27:30.598Z,12.30
2023-04-18T16:29:57.064Z,12.24
2023-04-18T16:32:23.600Z,12.23
2023-04-18T16:34:50.113Z,12.10
2023-04-18T16:37:16.570Z,11.94
2023-04-18T16:39:43.002Z,11.99
2023-04-18T16:42:09.517Z,11.74
2023-04-18T16:44:35.988Z,11.80
2023-04-18T16:47:04.954Z,11.94
2023-04-18T16:49:31.593Z,11.75
2023-04-18T16:51:58.086Z,11.57
2023-04-18T16:54:24.497Z,11.61
2023-04-18T16:56:50.913Z,11.65
2023-04-18T16:59:17.733Z,11.60
2023-04-18T17:01:44.293Z,11.49
2023-04-18T17:04:11.251Z,11.46
2023-04-18T17:06:37.747Z,11.43
2023-04-18T17:09:06.204Z,11.39
2023-04-18T17:11:38.781Z,11.23
2023-04-18T17:14:06.001Z,11.16
2023-04-18T17:16:32.417Z,11.15
2023-04-18T17:18:58.809Z,11.00
2023-04-18T17:21:26.121Z,11.08
2023-04-18T17:23:53.349Z,11.04
2023-04-18T17:26:19.780Z,10.95
2023-04-18T17:28:46.248Z,10.97
2023-04-18T17:31:16.214Z,10.90
2023-04-18T17:33:43.072Z,10.90
2023-04-18T17:36:09.789Z,10.83
2023-04-18T17:38:36.388Z,10.79
2023-04-18T17:41:04.562Z,10.79
2023-04-18T17:43:31.011Z,10.58
2023-04-18T17:45:59.873Z,10.56
2023-04-18T17:48:26.358Z,10.61
2023-04-18T17:50:52.757Z,10.47
2023-04-18T17:53:19.190Z,10.39
2023-04-18T17:55:48.849Z,10.47
2023-04-18T17:58:16.804Z,10.36
2023-04-18T18:00:43.330Z,10.29
2023-04-18T18:03:13.473Z,10.29
2023-04-18T18:05:41.307Z,10.20
2023-04-18T18:08:07.890Z,10.27
2023-04-18T18:10:34.423Z,10.23
2023-04-18T18:13:00.928Z,10.08
2023-04-18T18:15:28.393Z,10.09
2023-04-18T18:17:55.706Z,10.06
2023-04-18T18:20:22.423Z,10.06
2023-04-18T18:22:49.011Z,10.03
2023-04-18T18:25:15.436Z,9.95
2023-04-18T18:27:42.072Z,9.92
2023-04-18T18:30:09.156Z,9.95
2023-04-18T18:32:35.675Z,9.87
2023-04-18T18:35:02.812Z,9.85
2023-04-18T18:37:29.268Z,9.88
2023-04-18T18:39:59.770Z,9.81
2023-04-18T18:42:26.370Z,9.86
2023-04-18T18:44:52.816Z,9.82
2023-04-18T18:47:19.370Z,9.90
2023-04-18T18:49:45.881Z,9.82
2023-04-18T18:52:12.420Z,9.82
2023-04-18T18:54:38.968Z,9.83
2023-04-18T18:57:05.451Z,9.78
2023-04-18T18:59:32.010Z,9.80
2023-04-18T19:01:58.710Z,9.75
2023-04-18T19:04:25.623Z,9.80
2023-04-18T19:06:53.426Z,9.74
2023-04-18T19:09:19.861Z,9.74
2023-04-18T19:11:46.453Z,9.73
2023-04-18T19:14:13.091Z,9.77
2023-04-18T19:16:39.684Z,9.78
2023-04-18T19:19:06.253Z,9.73
2023-04-18T19:21:32.665Z,9.71
2023-04-18T19:23:59.320Z,9.73
2023-04-18T19:26:25.840Z,9.73
2023-04-18T19:28:52.890Z,9.61
2023-04-18T19:31:19.304Z,9.57
2023-04-18T19:33:45.983Z,9.64
2023-04-18T19:36:12.464Z,9.60
2023-04-18T19:38:38.905Z,9.59
2023-04-18T19:41:05.339Z,9.61
2023-04-18T19:43:31.886Z,9.56
2023-04-18T19:45:59.000Z,9.63
2023-04-18T19:48:25.506Z,9.56
2023-04-18T19:50:51.977Z,9.54
2023-04-18T19:53:18.994Z,9.59
2023-04-18T19:55:45.524Z,9.56
2023-04-18T19:58:11.975Z,9.46
2023-04-18T20:00:39.381Z,9.51
2023-04-18T20:03:05.928Z,9.45
2023-04-18T20:05:32.500Z,9.45
2023-04-18T20:07:58.910Z,9.50
2023-04-18T20:10:25.540Z,9.45
2023-04-18T20:12:52.014Z,9.50
2023-04-18T20:15:18.526Z,9.47
2023-04-18T20:17:45.141Z,9.44
2023-04-18T20:20:12.175Z,9.42
2023-04-18T20:22:40.314Z,9.43
2023-04-18T20:25:07.098Z,9.48
2023-04-18T20:27:33.541Z,9.52
2023-04-18T20:29:59.942Z,9.48
2023-04-18T20:32:26.675Z,9.47
2023-04-18T20:34:53.459Z,9.46
2023-04-18T20:37:20.125Z,9.52
2023-04-18T20:39:47.415Z,9.42
2023-04-18T20:42:14.199Z,9.41
2023-04-18T20:44:43.091Z,9.43
2023-04-18T20:47:09.612Z,9.41
2023-04-18T20:49:36.125Z,9.38
2023-04-18T20:52:02.609Z,9.33
2023-04-18T20:54:29.148Z,9.31
2023-04-18T20:56:55.613Z,9.41
2023-04-18T20:59:22.013Z,9.29
2023-04-18T21:01:48.434Z,9.31
2023-04-18T21:04:14.992Z,9.33
2023-04-18T21:06:41.746Z,9.36
2023-04-18T21:09:08.663Z,9.34
2023-04-18T21:11:35.229Z,9.33
2023-04-18T21:14:03.702Z,9.28
2023-04-18T21:16:30.247Z,9.31
2023-04-18T21:18:56.855Z,9.34
2023-04-18T21:21:24.248Z,9.26
2023-04-18T21:23:50.808Z,9.28
2023-04-18T21:26:17.234Z,9.20
2023-04-18T21:28:57.707Z,9.29
2023-04-18T21:31:29.047Z,9.20
2023-04-18T21:33:56.991Z,9.19
2023-04-18T21:36:24.574Z,9.26
2023-04-18T21:38:55.981Z,9.29
2023-04-18T21:41:23.473Z,9.20
2023-04-18T21:43:50.141Z,9.21
2023-04-18T21:46:17.175Z,9.15
2023-04-18T21:48:45.869Z,9.14
2023-04-18T21:51:14.303Z,9.11
2023-04-18T21:53:41.779Z,9.08
2023-04-18T21:56:08.742Z,9.15
2023-04-18T21:58:35.303Z,9.13
2023-04-18T22:01:01.834Z,9.12
2023-04-18T22:03:28.864Z,9.05
2023-04-18T22:05:56.549Z,9.12
2023-04-18T22:08:25.672Z,9.12
2023-04-18T22:10:57.574Z,9.06
2023-04-18T22:13:33.097Z,9.03
2023-04-18T22:16:03.287Z,9.07
2023-04-18T22:18:31.381Z,9.00
2023-04-18T22:20:57.817Z,9.03
2023-04-18T22:23:24.617Z,9.03
2023-04-18T22:25:51.041Z,9.06
2023-04-18T22:28:17.428Z,9.04
2023-04-18T22:30:43.875Z,9.07
2023-04-18T22:33:10.493Z,8.98
2023-04-18T22:35:36.900Z,8.99
2023-04-18T22:38:03.339Z,8.99
2023-04-18T22:40:30.009Z,9.08
2023-04-18T22:42:56.408Z,9.00
2023-04-18T22:45:22.848Z,8.88
2023-04-18T22:47:49.414Z,8.98
2023-04-18T22:50:15.996Z,8.97
2023-04-18T22:52:42.482Z,8.97
2023-04-18T22:55:09.392Z,8.94
2023-04-18T22:57:36.102Z,8.95
2023-04-18T23:00:04.708Z,9.00
2023-04-18T23:02:31.341Z,9.00
2023-04-18T23:04:59.581Z,8.96
2023-04-18T23:07:26.046Z,8.92
2023-04-18T23:09:52.508Z,8.94
2023-04-18T23:12:18.970Z,8.92
2023-04-18T23:14:45.562Z,8.85
2023-04-18T23:17:11.983Z,8.86
2023-04-18T23:19:38.659Z,8.87
2023-04-18T23:22:05.085Z,8.81
2023-04-18T23:24:31.884Z,8.81
2023-04-18T23:26:58.275Z,8.85
2023-04-18T23:29:24.901Z,8.93
2023-04-18T23:31:51.647Z,8.80
2023-04-18T23:34:18.119Z,8.86
2023-04-18T23:36:44.862Z,8.81
2023-04-18T23:39:11.485Z,8.77
2023-04-18T23:41:37.895Z,8.75
2023-04-18T23:44:04.437Z,8.75
2023-04-18T23:46:31.108Z,8.81
2023-04-18T23:48:57.623Z,8.73
2023-04-18T23:51:24.037Z,8.73
2023-04-18T23:53:50.833Z,8.80
2023-04-18T23:56:17.259Z,8.80
2023-04-18T23:58:43.668Z,8.76
